sensor_id;sensor_type;location;lat;lon;timestamp;P1;durP1;ratioP1;P2;durP2;ratioP2
41711;SDS011;27399;51.516;13.670;2023-10-13T00:01:55;23.10;;;7.80;;
41711;SDS011;27399;51.516;13.670;2023-10-13T00:04:24;27.02;;;9.35;;
41711;SDS011;27399;51.516;13.670;2023-10-13T00:06:50;18.58;;;7.95;;
41711;SDS011;27399;51.516;13.670;2023-10-13T00:09:17;19.15;;;9.07;;
41711;SDS011;27399;51.516;13.670;2023-10-13T00:11:44;23.20;;;9.45;;
41711;SDS011;27399;51.516;13.670;2023-10-13T00:14:13;15.07;;;8.15;;
41711;SDS011;27399;51.516;13.670;2023-10-13T00:16:44;17.95;;;8.07;;
41711;SDS011;27399;51.516;13.670;2023-10-13T00:19:33;21.17;;;9.27;;
41711;SDS011;27399;51.516;13.670;2023-10-13T00:22:17;22.73;;;9.48;;
41711;SDS011;27399;51.516;13.670;2023-10-13T00:24:45;20.60;;;9.32;;
41711;SDS011;27399;51.516;13.670;2023-10-13T00:27:12;18.20;;;8.52;;
41711;SDS011;27399;51.516;13.670;2023-10-13T00:30:05;20.83;;;9.70;;
41711;SDS011;27399;51.516;13.670;2023-10-13T00:32:48;24.75;;;9.10;;
41711;SDS011;27399;51.516;13.670;2023-10-13T00:35:25;36.47;;;10.43;;
41711;SDS011;27399;51.516;13.670;2023-10-13T00:38:01;19.67;;;8.85;;
41711;SDS011;27399;51.516;13.670;2023-10-13T00:40:37;28.20;;;10.25;;
41711;SDS011;27399;51.516;13.670;2023-10-13T00:43:04;21.45;;;8.55;;
41711;SDS011;27399;51.516;13.670;2023-10-13T00:45:57;18.73;;;9.63;;
41711;SDS011;27399;51.516;13.670;2023-10-13T00:48:29;22.58;;;9.43;;
41711;SDS011;27399;51.516;13.670;2023-10-13T00:51:07;17.13;;;9.45;;
41711;SDS011;27399;51.516;13.670;2023-10-13T00:53:37;22.67;;;9.32;;
41711;SDS011;27399;51.516;13.670;2023-10-13T00:56:09;27.80;;;10.70;;
41711;SDS011;27399;51.516;13.670;2023-10-13T00:58:44;19.58;;;9.40;;
41711;SDS011;27399;51.516;13.670;2023-10-13T01:01:17;21.27;;;9.95;;
41711;SDS011;27399;51.516;13.670;2023-10-13T01:03:46;17.92;;;9.38;;
41711;SDS011;27399;51.516;13.670;2023-10-13T01:06:14;23.75;;;9.20;;
41711;SDS011;27399;51.516;13.670;2023-10-13T01:08:42;31.75;;;10.38;;
41711;SDS011;27399;51.516;13.670;2023-10-13T01:11:10;27.67;;;9.80;;
41711;SDS011;27399;51.516;13.670;2023-10-13T01:13:36;24.45;;;9.95;;
41711;SDS011;27399;51.516;13.670;2023-10-13T01:16:02;23.92;;;9.93;;
41711;SDS011;27399;51.516;13.670;2023-10-13T01:18:29;21.38;;;10.63;;
41711;SDS011;27399;51.516;13.670;2023-10-13T01:20:55;20.45;;;9.23;;
41711;SDS011;27399;51.516;13.670;2023-10-13T01:23:25;18.92;;;9.15;;
41711;SDS011;27399;51.516;13.670;2023-10-13T01:25:53;16.02;;;9.80;;
41711;SDS011;27399;51.516;13.670;2023-10-13T01:28:21;28.17;;;10.52;;
41711;SDS011;27399;51.516;13.670;2023-10-13T01:30:48;22.75;;;9.23;;
41711;SDS011;27399;51.516;13.670;2023-10-13T01:33:18;18.25;;;9.15;;
41711;SDS011;27399;51.516;13.670;2023-10-13T01:35:51;21.38;;;9.40;;
41711;SDS011;27399;51.516;13.670;2023-10-13T01:38:18;21.45;;;9.75;;
41711;SDS011;27399;51.516;13.670;2023-10-13T01:40:43;21.15;;;9.20;;
41711;SDS011;27399;51.516;13.670;2023-10-13T01:43:09;23.75;;;8.63;;
41711;SDS011;27399;51.516;13.670;2023-10-13T01:45:40;17.80;;;8.52;;
41711;SDS011;27399;51.516;13.670;2023-10-13T01:48:15;24.50;;;8.82;;
41711;SDS011;27399;51.516;13.670;2023-10-13T01:50:42;25.92;;;10.95;;
41711;SDS011;27399;51.516;13.670;2023-10-13T01:53:13;26.45;;;10.00;;
41711;SDS011;27399;51.516;13.670;2023-10-13T01:55:43;23.47;;;10.50;;
41711;SDS011;27399;51.516;13.670;2023-10-13T01:58:12;17.98;;;9.50;;
41711;SDS011;27399;51.516;13.670;2023-10-13T02:00:40;19.02;;;10.38;;
41711;SDS011;27399;51.516;13.670;2023-10-13T02:03:08;18.77;;;9.55;;
41711;SDS011;27399;51.516;13.670;2023-10-13T02:05:44;21.65;;;8.45;;
41711;SDS011;27399;51.516;13.670;2023-10-13T02:08:16;21.00;;;10.63;;
41711;SDS011;27399;51.516;13.670;2023-10-13T02:10:48;22.60;;;8.98;;
41711;SDS011;27399;51.516;13.670;2023-10-13T02:13:18;19.38;;;9.02;;
41711;SDS011;27399;51.516;13.670;2023-10-13T02:15:48;23.70;;;8.33;;
41711;SDS011;27399;51.516;13.670;2023-10-13T02:18:19;22.95;;;8.80;;
41711;SDS011;27399;51.516;13.670;2023-10-13T02:20:51;22.92;;;9.00;;
41711;SDS011;27399;51.516;13.670;2023-10-13T02:23:21;18.38;;;8.30;;
41711;SDS011;27399;51.516;13.670;2023-10-13T02:25:55;22.75;;;9.98;;
41711;SDS011;27399;51.516;13.670;2023-10-13T02:28:35;15.73;;;7.43;;
41711;SDS011;27399;51.516;13.670;2023-10-13T02:31:04;19.42;;;9.43;;
41711;SDS011;27399;51.516;13.670;2023-10-13T02:33:33;18.08;;;8.88;;
41711;SDS011;27399;51.516;13.670;2023-10-13T02:36:00;23.83;;;8.95;;
41711;SDS011;27399;51.516;13.670;2023-10-13T02:38:31;29.80;;;9.82;;
41711;SDS011;27399;51.516;13.670;2023-10-13T02:41:01;23.57;;;9.13;;
41711;SDS011;27399;51.516;13.670;2023-10-13T02:43:35;23.83;;;10.00;;
41711;SDS011;27399;51.516;13.670;2023-10-13T02:46:02;18.42;;;9.60;;
41711;SDS011;27399;51.516;13.670;2023-10-13T02:48:29;31.30;;;10.05;;
41711;SDS011;27399;51.516;13.670;2023-10-13T02:51:05;32.83;;;9.63;;
41711;SDS011;27399;51.516;13.670;2023-10-13T02:53:41;24.75;;;9.93;;
41711;SDS011;27399;51.516;13.670;2023-10-13T02:56:11;25.95;;;10.55;;
41711;SDS011;27399;51.516;13.670;2023-10-13T02:58:39;25.35;;;9.40;;
41711;SDS011;27399;51.516;13.670;2023-10-13T03:01:11;30.10;;;10.52;;
41711;SDS011;27399;51.516;13.670;2023-10-13T03:03:43;22.08;;;9.07;;
41711;SDS011;27399;51.516;13.670;2023-10-13T03:06:15;24.15;;;8.45;;
41711;SDS011;27399;51.516;13.670;2023-10-13T03:08:42;21.25;;;10.10;;
41711;SDS011;27399;51.516;13.670;2023-10-13T03:11:11;21.70;;;9.68;;
41711;SDS011;27399;51.516;13.670;2023-10-13T03:13:39;23.67;;;9.48;;
41711;SDS011;27399;51.516;13.670;2023-10-13T03:18:41;21.30;;;9.18;;
41711;SDS011;27399;51.516;13.670;2023-10-13T03:21:17;15.45;;;8.50;;
41711;SDS011;27399;51.516;13.670;2023-10-13T03:23:57;17.45;;;8.23;;
41711;SDS011;27399;51.516;13.670;2023-10-13T03:26:33;23.13;;;7.80;;
41711;SDS011;27399;51.516;13.670;2023-10-13T03:29:03;21.05;;;8.68;;
41711;SDS011;27399;51.516;13.670;2023-10-13T03:34:03;17.92;;;7.05;;
41711;SDS011;27399;51.516;13.670;2023-10-13T03:36:30;18.88;;;7.95;;
41711;SDS011;27399;51.516;13.670;2023-10-13T03:39:14;18.25;;;8.02;;
41711;SDS011;27399;51.516;13.670;2023-10-13T03:41:43;15.98;;;7.75;;
41711;SDS011;27399;51.516;13.670;2023-10-13T03:44:10;17.08;;;7.47;;
41711;SDS011;27399;51.516;13.670;2023-10-13T03:46:43;15.32;;;7.85;;
41711;SDS011;27399;51.516;13.670;2023-10-13T03:49:15;16.17;;;6.97;;
41711;SDS011;27399;51.516;13.670;2023-10-13T03:51:46;19.88;;;6.97;;
41711;SDS011;27399;51.516;13.670;2023-10-13T03:54:16;14.60;;;7.63;;
41711;SDS011;27399;51.516;13.670;2023-10-13T03:56:42;18.17;;;7.85;;
41711;SDS011;27399;51.516;13.670;2023-10-13T03:59:17;15.63;;;7.63;;
41711;SDS011;27399;51.516;13.670;2023-10-13T04:01:44;17.17;;;8.13;;
41711;SDS011;27399;51.516;13.670;2023-10-13T04:04:28;15.95;;;7.28;;
41711;SDS011;27399;51.516;13.670;2023-10-13T04:07:01;14.05;;;8.05;;
41711;SDS011;27399;51.516;13.670;2023-10-13T04:09:36;12.20;;;7.05;;
41711;SDS011;27399;51.516;13.670;2023-10-13T04:12:12;16.25;;;7.65;;
41711;SDS011;27399;51.516;13.670;2023-10-13T04:14:42;19.77;;;7.50;;
41711;SDS011;27399;51.516;13.670;2023-10-13T04:17:27;13.48;;;7.68;;
41711;SDS011;27399;51.516;13.670;2023-10-13T04:19:57;20.98;;;8.02;;
41711;SDS011;27399;51.516;13.670;2023-10-13T04:22:33;18.30;;;8.05;;
41711;SDS011;27399;51.516;13.670;2023-10-13T04:25:22;18.50;;;9.10;;
41711;SDS011;27399;51.516;13.670;2023-10-13T04:28:11;22.30;;;7.88;;
41711;SDS011;27399;51.516;13.670;2023-10-13T04:30:52;17.08;;;7.53;;
41711;SDS011;27399;51.516;13.670;2023-10-13T04:33:24;25.58;;;9.63;;
41711;SDS011;27399;51.516;13.670;2023-10-13T04:36:06;14.20;;;7.18;;
41711;SDS011;27399;51.516;13.670;2023-10-13T04:38:53;21.33;;;8.77;;
41711;SDS011;27399;51.516;13.670;2023-10-13T04:44:14;14.35;;;7.78;;
41711;SDS011;27399;51.516;13.670;2023-10-13T04:47:06;16.48;;;7.30;;
41711;SDS011;27399;51.516;13.670;2023-10-13T04:49:46;12.57;;;6.75;;
41711;SDS011;27399;51.516;13.670;2023-10-13T04:52:15;14.43;;;6.18;;
41711;SDS011;27399;51.516;13.670;2023-10-13T04:55:02;10.27;;;5.57;;
41711;SDS011;27399;51.516;13.670;2023-10-13T04:57:46;10.10;;;5.70;;
41711;SDS011;27399;51.516;13.670;2023-10-13T05:00:25;11.32;;;6.20;;
41711;SDS011;27399;51.516;13.670;2023-10-13T05:03:10;12.23;;;6.40;;
41711;SDS011;27399;51.516;13.670;2023-10-13T05:05:54;10.27;;;5.85;;
41711;SDS011;27399;51.516;13.670;2023-10-13T05:08:38;11.25;;;5.95;;
41711;SDS011;27399;51.516;13.670;2023-10-13T05:11:23;11.68;;;5.85;;
41711;SDS011;27399;51.516;13.670;2023-10-13T05:14:07;17.70;;;6.85;;
41711;SDS011;27399;51.516;13.670;2023-10-13T05:16:53;19.08;;;6.50;;
41711;SDS011;27399;51.516;13.670;2023-10-13T05:19:37;13.38;;;5.97;;
41711;SDS011;27399;51.516;13.670;2023-10-13T05:22:24;13.93;;;6.50;;
41711;SDS011;27399;51.516;13.670;2023-10-13T05:25:08;20.50;;;7.55;;
41711;SDS011;27399;51.516;13.670;2023-10-13T05:27:56;11.30;;;5.72;;
41711;SDS011;27399;51.516;13.670;2023-10-13T05:30:40;27.25;;;6.53;;
41711;SDS011;27399;51.516;13.670;2023-10-13T05:33:25;17.33;;;7.63;;
41711;SDS011;27399;51.516;13.670;2023-10-13T05:36:10;20.63;;;6.70;;
41711;SDS011;27399;51.516;13.670;2023-10-13T05:38:55;15.93;;;7.70;;
41711;SDS011;27399;51.516;13.670;2023-10-13T05:42:05;18.02;;;7.03;;
41711;SDS011;27399;51.516;13.670;2023-10-13T05:44:52;16.70;;;7.55;;
41711;SDS011;27399;51.516;13.670;2023-10-13T05:47:49;21.35;;;8.75;;
41711;SDS011;27399;51.516;13.670;2023-10-13T05:50:30;16.02;;;6.80;;
41711;SDS011;27399;51.516;13.670;2023-10-13T05:53:20;10.75;;;5.53;;
41711;SDS011;27399;51.516;13.670;2023-10-13T05:56:13;13.00;;;6.82;;
41711;SDS011;27399;51.516;13.670;2023-10-13T05:59:06;13.15;;;6.20;;
41711;SDS011;27399;51.516;13.670;2023-10-13T06:01:53;13.52;;;6.32;;
41711;SDS011;27399;51.516;13.670;2023-10-13T06:04:40;18.00;;;6.68;;
41711;SDS011;27399;51.516;13.670;2023-10-13T06:07:30;17.45;;;6.50;;
41711;SDS011;27399;51.516;13.670;2023-10-13T06:10:20;21.50;;;6.30;;
41711;SDS011;27399;51.516;13.670;2023-10-13T06:16:27;10.55;;;5.75;;
41711;SDS011;27399;51.516;13.670;2023-10-13T06:19:12;12.23;;;5.93;;
41711;SDS011;27399;51.516;13.670;2023-10-13T06:22:12;10.90;;;5.82;;
41711;SDS011;27399;51.516;13.670;2023-10-13T06:25:05;20.27;;;5.67;;
41711;SDS011;27399;51.516;13.670;2023-10-13T06:27:52;7.95;;;5.13;;
41711;SDS011;27399;51.516;13.670;2023-10-13T06:30:40;11.50;;;6.28;;
41711;SDS011;27399;51.516;13.670;2023-10-13T06:33:24;10.73;;;5.53;;
41711;SDS011;27399;51.516;13.670;2023-10-13T06:35:57;16.67;;;5.82;;
41711;SDS011;27399;51.516;13.670;2023-10-13T06:38:37;11.15;;;5.72;;
41711;SDS011;27399;51.516;13.670;2023-10-13T06:41:20;14.38;;;6.30;;
41711;SDS011;27399;51.516;13.670;2023-10-13T06:43:58;9.95;;;5.47;;
41711;SDS011;27399;51.516;13.670;2023-10-13T06:46:33;12.90;;;5.75;;
41711;SDS011;27399;51.516;13.670;2023-10-13T06:49:02;7.85;;;5.57;;
41711;SDS011;27399;51.516;13.670;2023-10-13T06:51:34;10.05;;;5.60;;
41711;SDS011;27399;51.516;13.670;2023-10-13T06:54:09;11.55;;;5.20;;
41711;SDS011;27399;51.516;13.670;2023-10-13T06:56:47;12.07;;;5.70;;
41711;SDS011;27399;51.516;13.670;2023-10-13T06:59:17;9.73;;;5.00;;
41711;SDS011;27399;51.516;13.670;2023-10-13T07:01:43;9.82;;;4.97;;
41711;SDS011;27399;51.516;13.670;2023-10-13T07:04:18;16.15;;;6.03;;
41711;SDS011;27399;51.516;13.670;2023-10-13T07:06:46;11.63;;;6.10;;
41711;SDS011;27399;51.516;13.670;2023-10-13T07:09:22;10.20;;;5.45;;
41711;SDS011;27399;51.516;13.670;2023-10-13T07:12:00;10.98;;;5.82;;
41711;SDS011;27399;51.516;13.670;2023-10-13T07:14:31;12.40;;;5.25;;
41711;SDS011;27399;51.516;13.670;2023-10-13T07:17:35;8.90;;;4.93;;
41711;SDS011;27399;51.516;13.670;2023-10-13T07:20:09;13.10;;;5.30;;
41711;SDS011;27399;51.516;13.670;2023-10-13T07:22:49;8.07;;;5.30;;
41711;SDS011;27399;51.516;13.670;2023-10-13T07:25:31;9.82;;;4.57;;
41711;SDS011;27399;51.516;13.670;2023-10-13T07:28:05;9.45;;;4.53;;
41711;SDS011;27399;51.516;13.670;2023-10-13T07:30:35;7.18;;;4.32;;
41711;SDS011;27399;51.516;13.670;2023-10-13T07:33:35;12.02;;;4.82;;
41711;SDS011;27399;51.516;13.670;2023-10-13T07:36:07;11.57;;;4.80;;
41711;SDS011;27399;51.516;13.670;2023-10-13T07:38:56;9.07;;;4.75;;
41711;SDS011;27399;51.516;13.670;2023-10-13T07:41:49;13.60;;;4.38;;
41711;SDS011;27399;51.516;13.670;2023-10-13T07:44:33;6.78;;;4.10;;
41711;SDS011;27399;51.516;13.670;2023-10-13T07:47:11;10.18;;;4.65;;
41711;SDS011;27399;51.516;13.670;2023-10-13T07:49:45;7.63;;;4.18;;
41711;SDS011;27399;51.516;13.670;2023-10-13T07:52:31;7.93;;;3.75;;
41711;SDS011;27399;51.516;13.670;2023-10-13T07:55:24;11.18;;;3.90;;
41711;SDS011;27399;51.516;13.670;2023-10-13T07:57:57;6.93;;;3.75;;
41711;SDS011;27399;51.516;13.670;2023-10-13T08:00:32;5.32;;;3.40;;
41711;SDS011;27399;51.516;13.670;2023-10-13T08:03:10;4.68;;;3.30;;
41711;SDS011;27399;51.516;13.670;2023-10-13T08:05:57;5.53;;;3.53;;
41711;SDS011;27399;51.516;13.670;2023-10-13T08:08:44;8.38;;;3.25;;
41711;SDS011;27399;51.516;13.670;2023-10-13T08:11:20;6.68;;;3.20;;
41711;SDS011;27399;51.516;13.670;2023-10-13T08:13:49;5.38;;;2.80;;
41711;SDS011;27399;51.516;13.670;2023-10-13T08:16:35;5.57;;;3.58;;
41711;SDS011;27399;51.516;13.670;2023-10-13T08:19:17;8.95;;;3.75;;
41711;SDS011;27399;51.516;13.670;2023-10-13T08:22:13;8.95;;;2.90;;
41711;SDS011;27399;51.516;13.670;2023-10-13T08:24:43;5.78;;;2.88;;
41711;SDS011;27399;51.516;13.670;2023-10-13T08:27:10;10.00;;;2.83;;
41711;SDS011;27399;51.516;13.670;2023-10-13T08:29:42;6.20;;;2.90;;
41711;SDS011;27399;51.516;13.670;2023-10-13T08:32:30;7.28;;;3.20;;
41711;SDS011;27399;51.516;13.670;2023-10-13T08:34:59;6.40;;;3.20;;
41711;SDS011;27399;51.516;13.670;2023-10-13T08:37:32;4.57;;;2.90;;
41711;SDS011;27399;51.516;13.670;2023-10-13T08:40:22;4.88;;;3.03;;
41711;SDS011;27399;51.516;13.670;2023-10-13T08:43:12;4.72;;;2.40;;
41711;SDS011;27399;51.516;13.670;2023-10-13T08:45:42;4.40;;;2.60;;
41711;SDS011;27399;51.516;13.670;2023-10-13T08:48:11;5.00;;;2.85;;
41711;SDS011;27399;51.516;13.670;2023-10-13T08:50:45;8.40;;;3.80;;
41711;SDS011;27399;51.516;13.670;2023-10-13T08:53:17;4.10;;;2.70;;
41711;SDS011;27399;51.516;13.670;2023-10-13T08:55:58;6.28;;;2.88;;
41711;SDS011;27399;51.516;13.670;2023-10-13T08:58:57;5.65;;;3.00;;
41711;SDS011;27399;51.516;13.670;2023-10-13T09:01:29;5.95;;;2.80;;
41711;SDS011;27399;51.516;13.670;2023-10-13T09:04:22;5.60;;;2.65;;
41711;SDS011;27399;51.516;13.670;2023-10-13T09:07:00;12.00;;;3.15;;
41711;SDS011;27399;51.516;13.670;2023-10-13T09:12:02;7.82;;;2.83;;
41711;SDS011;27399;51.516;13.670;2023-10-13T09:14:54;6.32;;;2.72;;
41711;SDS011;27399;51.516;13.670;2023-10-13T09:18:02;4.40;;;2.38;;
41711;SDS011;27399;51.516;13.670;2023-10-13T09:20:40;3.10;;;2.60;;
41711;SDS011;27399;51.516;13.670;2023-10-13T09:23:12;4.15;;;2.58;;
41711;SDS011;27399;51.516;13.670;2023-10-13T09:25:53;5.35;;;2.58;;
41711;SDS011;27399;51.516;13.670;2023-10-13T09:28:34;4.15;;;2.40;;
41711;SDS011;27399;51.516;13.670;2023-10-13T09:31:03;6.32;;;2.80;;
41711;SDS011;27399;51.516;13.670;2023-10-13T09:33:35;6.20;;;2.80;;
41711;SDS011;27399;51.516;13.670;2023-10-13T09:36:02;5.53;;;2.72;;
41711;SDS011;27399;51.516;13.670;2023-10-13T09:38:38;7.18;;;2.63;;
41711;SDS011;27399;51.516;13.670;2023-10-13T09:41:13;6.97;;;3.03;;
41711;SDS011;27399;51.516;13.670;2023-10-13T09:43:51;6.63;;;2.60;;
41711;SDS011;27399;51.516;13.670;2023-10-13T09:46:20;6.25;;;2.53;;
41711;SDS011;27399;51.516;13.670;2023-10-13T09:48:58;7.07;;;2.75;;
41711;SDS011;27399;51.516;13.670;2023-10-13T09:51:45;9.33;;;2.70;;
41711;SDS011;27399;51.516;13.670;2023-10-13T09:54:18;5.32;;;2.65;;
41711;SDS011;27399;51.516;13.670;2023-10-13T09:57:08;3.78;;;2.33;;
41711;SDS011;27399;51.516;13.670;2023-10-13T09:59:46;6.13;;;2.20;;
41711;SDS011;27399;51.516;13.670;2023-10-13T10:02:18;6.10;;;2.75;;
41711;SDS011;27399;51.516;13.670;2023-10-13T10:04:59;5.32;;;2.40;;
41711;SDS011;27399;51.516;13.670;2023-10-13T10:07:40;3.03;;;1.90;;
41711;SDS011;27399;51.516;13.670;2023-10-13T10:10:13;5.68;;;2.55;;
41711;SDS011;27399;51.516;13.670;2023-10-13T10:12:49;5.18;;;2.28;;
41711;SDS011;27399;51.516;13.670;2023-10-13T10:15:35;5.43;;;2.58;;
41711;SDS011;27399;51.516;13.670;2023-10-13T10:18:20;3.75;;;2.45;;
41711;SDS011;27399;51.516;13.670;2023-10-13T10:21:02;7.88;;;2.55;;
41711;SDS011;27399;51.516;13.670;2023-10-13T10:23:36;8.10;;;2.40;;
41711;SDS011;27399;51.516;13.670;2023-10-13T10:26:13;8.23;;;2.60;;
41711;SDS011;27399;51.516;13.670;2023-10-13T10:28:50;5.03;;;2.33;;
41711;SDS011;27399;51.516;13.670;2023-10-13T10:31:17;6.57;;;2.40;;
41711;SDS011;27399;51.516;13.670;2023-10-13T10:33:45;7.32;;;3.15;;
41711;SDS011;27399;51.516;13.670;2023-10-13T10:36:28;5.07;;;2.67;;
41711;SDS011;27399;51.516;13.670;2023-10-13T10:38:57;7.55;;;2.45;;
41711;SDS011;27399;51.516;13.670;2023-10-13T10:41:29;4.18;;;2.65;;
41711;SDS011;27399;51.516;13.670;2023-10-13T10:44:16;9.60;;;3.08;;
41711;SDS011;27399;51.516;13.670;2023-10-13T10:47:11;7.13;;;2.55;;
41711;SDS011;27399;51.516;13.670;2023-10-13T10:49:58;7.00;;;3.13;;
41711;SDS011;27399;51.516;13.670;2023-10-13T10:52:51;6.93;;;3.50;;
41711;SDS011;27399;51.516;13.670;2023-10-13T10:55:22;6.05;;;2.90;;
41711;SDS011;27399;51.516;13.670;2023-10-13T10:58:02;11.05;;;4.03;;
41711;SDS011;27399;51.516;13.670;2023-10-13T11:00:32;7.60;;;4.05;;
41711;SDS011;27399;51.516;13.670;2023-10-13T11:03:15;6.90;;;3.53;;
41711;SDS011;27399;51.516;13.670;2023-10-13T11:05:47;8.43;;;3.90;;
41711;SDS011;27399;51.516;13.670;2023-10-13T11:08:25;5.97;;;3.58;;
41711;SDS011;27399;51.516;13.670;2023-10-13T11:11:00;9.45;;;4.20;;
41711;SDS011;27399;51.516;13.670;2023-10-13T11:13:26;7.95;;;4.10;;
41711;SDS011;27399;51.516;13.670;2023-10-13T11:16:08;7.43;;;3.97;;
41711;SDS011;27399;51.516;13.670;2023-10-13T11:18:36;10.23;;;4.72;;
41711;SDS011;27399;51.516;13.670;2023-10-13T11:21:06;11.23;;;4.07;;
41711;SDS011;27399;51.516;13.670;2023-10-13T11:23:56;10.88;;;4.25;;
41711;SDS011;27399;51.516;13.670;2023-10-13T11:26:36;13.20;;;4.30;;
41711;SDS011;27399;51.516;13.670;2023-10-13T11:29:16;7.55;;;3.67;;
41711;SDS011;27399;51.516;13.670;2023-10-13T11:31:48;10.52;;;4.20;;
41711;SDS011;27399;51.516;13.670;2023-10-13T11:34:24;7.85;;;4.10;;
41711;SDS011;27399;51.516;13.670;2023-10-13T11:36:50;13.60;;;4.70;;
41711;SDS011;27399;51.516;13.670;2023-10-13T11:39:17;10.57;;;4.35;;
41711;SDS011;27399;51.516;13.670;2023-10-13T11:41:49;8.95;;;4.50;;
41711;SDS011;27399;51.516;13.670;2023-10-13T11:44:24;9.73;;;4.47;;
41711;SDS011;27399;51.516;13.670;2023-10-13T11:46:56;12.98;;;4.35;;
41711;SDS011;27399;51.516;13.670;2023-10-13T11:49:53;11.70;;;4.25;;
41711;SDS011;27399;51.516;13.670;2023-10-13T11:52:30;11.95;;;4.47;;
41711;SDS011;27399;51.516;13.670;2023-10-13T11:55:05;11.60;;;4.50;;
41711;SDS011;27399;51.516;13.670;2023-10-13T11:57:39;12.73;;;5.00;;
41711;SDS011;27399;51.516;13.670;2023-10-13T12:00:08;11.80;;;3.78;;
41711;SDS011;27399;51.516;13.670;2023-10-13T12:03:09;11.48;;;4.47;;
41711;SDS011;27399;51.516;13.670;2023-10-13T12:05:54;11.40;;;4.05;;
41711;SDS011;27399;51.516;13.670;2023-10-13T12:08:38;15.43;;;5.00;;
41711;SDS011;27399;51.516;13.670;2023-10-13T12:11:17;13.82;;;4.53;;
41711;SDS011;27399;51.516;13.670;2023-10-13T12:14:09;14.68;;;5.18;;
41711;SDS011;27399;51.516;13.670;2023-10-13T12:16:53;12.57;;;4.45;;
41711;SDS011;27399;51.516;13.670;2023-10-13T12:19:21;15.73;;;4.82;;
41711;SDS011;27399;51.516;13.670;2023-10-13T12:22:16;10.43;;;4.72;;
41711;SDS011;27399;51.516;13.670;2023-10-13T12:25:00;9.40;;;3.55;;
41711;SDS011;27399;51.516;13.670;2023-10-13T12:27:43;12.23;;;4.38;;
41711;SDS011;27399;51.516;13.670;2023-10-13T12:30:15;11.05;;;4.05;;
41711;SDS011;27399;51.516;13.670;2023-10-13T12:33:14;12.55;;;4.93;;
41711;SDS011;27399;51.516;13.670;2023-10-13T12:35:50;13.00;;;4.82;;
41711;SDS011;27399;51.516;13.670;2023-10-13T12:38:52;13.15;;;4.07;;
41711;SDS011;27399;51.516;13.670;2023-10-13T12:41:33;9.85;;;4.10;;
41711;SDS011;27399;51.516;13.670;2023-10-13T12:44:17;13.10;;;4.45;;
41711;SDS011;27399;51.516;13.670;2023-10-13T12:47:07;11.93;;;4.03;;
41711;SDS011;27399;51.516;13.670;2023-10-13T12:49:54;12.95;;;4.47;;
41711;SDS011;27399;51.516;13.670;2023-10-13T12:52:23;10.77;;;3.97;;
41711;SDS011;27399;51.516;13.670;2023-10-13T12:54:56;6.03;;;3.10;;
41711;SDS011;27399;51.516;13.670;2023-10-13T12:57:31;9.40;;;4.03;;
41711;SDS011;27399;51.516;13.670;2023-10-13T13:00:08;10.60;;;3.72;;
41711;SDS011;27399;51.516;13.670;2023-10-13T13:02:48;10.65;;;4.18;;
41711;SDS011;27399;51.516;13.670;2023-10-13T13:05:20;7.40;;;3.90;;
41711;SDS011;27399;51.516;13.670;2023-10-13T13:07:56;10.43;;;4.30;;
41711;SDS011;27399;51.516;13.670;2023-10-13T13:10:22;13.75;;;4.07;;
41711;SDS011;27399;51.516;13.670;2023-10-13T13:13:00;12.50;;;4.18;;
41711;SDS011;27399;51.516;13.670;2023-10-13T13:15:30;9.80;;;3.40;;
41711;SDS011;27399;51.516;13.670;2023-10-13T13:18:02;13.38;;;4.03;;
41711;SDS011;27399;51.516;13.670;2023-10-13T13:20:38;11.75;;;4.35;;
41711;SDS011;27399;51.516;13.670;2023-10-13T13:23:04;13.35;;;3.90;;
41711;SDS011;27399;51.516;13.670;2023-10-13T13:25:37;10.02;;;3.88;;
41711;SDS011;27399;51.516;13.670;2023-10-13T13:28:08;7.95;;;3.35;;
41711;SDS011;27399;51.516;13.670;2023-10-13T13:30:45;10.25;;;4.53;;
41711;SDS011;27399;51.516;13.670;2023-10-13T13:33:15;12.75;;;4.75;;
41711;SDS011;27399;51.516;13.670;2023-10-13T13:35:48;13.15;;;3.72;;
41711;SDS011;27399;51.516;13.670;2023-10-13T13:38:18;20.00;;;4.38;;
41711;SDS011;27399;51.516;13.670;2023-10-13T13:40:47;12.73;;;4.43;;
41711;SDS011;27399;51.516;13.670;2023-10-13T13:43:27;11.10;;;3.63;;
41711;SDS011;27399;51.516;13.670;2023-10-13T13:46:09;9.95;;;4.18;;
41711;SDS011;27399;51.516;13.670;2023-10-13T13:48:35;11.43;;;4.15;;
41711;SDS011;27399;51.516;13.670;2023-10-13T13:51:05;12.23;;;4.68;;
41711;SDS011;27399;51.516;13.670;2023-10-13T13:53:38;13.73;;;4.60;;
41711;SDS011;27399;51.516;13.670;2023-10-13T13:56:07;12.30;;;4.17;;
41711;SDS011;27399;51.516;13.670;2023-10-13T13:58:33;14.88;;;3.90;;
41711;SDS011;27399;51.516;13.670;2023-10-13T14:00:59;12.95;;;4.20;;
41711;SDS011;27399;51.516;13.670;2023-10-13T14:03:26;15.13;;;4.65;;
41711;SDS011;27399;51.516;13.670;2023-10-13T14:06:00;12.13;;;3.85;;
41711;SDS011;27399;51.516;13.670;2023-10-13T14:08:26;12.60;;;3.72;;
41711;SDS011;27399;51.516;13.670;2023-10-13T14:10:55;10.35;;;4.72;;
41711;SDS011;27399;51.516;13.670;2023-10-13T14:13:46;10.85;;;3.95;;
41711;SDS011;27399;51.516;13.670;2023-10-13T14:16:14;15.68;;;4.43;;
41711;SDS011;27399;51.516;13.670;2023-10-13T14:21:10;20.95;;;4.18;;
41711;SDS011;27399;51.516;13.670;2023-10-13T14:23:36;11.10;;;3.92;;
41711;SDS011;27399;51.516;13.670;2023-10-13T14:26:01;10.70;;;3.92;;
41711;SDS011;27399;51.516;13.670;2023-10-13T14:28:27;11.50;;;3.97;;
41711;SDS011;27399;51.516;13.670;2023-10-13T14:31:03;9.93;;;4.55;;
41711;SDS011;27399;51.516;13.670;2023-10-13T14:33:35;16.92;;;4.60;;
41711;SDS011;27399;51.516;13.670;2023-10-13T14:36:02;20.27;;;5.45;;
41711;SDS011;27399;51.516;13.670;2023-10-13T14:38:30;10.45;;;3.90;;
41711;SDS011;27399;51.516;13.670;2023-10-13T14:40:58;8.82;;;3.63;;
41711;SDS011;27399;51.516;13.670;2023-10-13T14:43:24;9.70;;;4.13;;
41711;SDS011;27399;51.516;13.670;2023-10-13T14:45:55;12.27;;;4.03;;
41711;SDS011;27399;51.516;13.670;2023-10-13T14:48:21;18.15;;;4.68;;
41711;SDS011;27399;51.516;13.670;2023-10-13T14:50:49;18.83;;;5.38;;
41711;SDS011;27399;51.516;13.670;2023-10-13T14:53:14;17.23;;;4.53;;
41711;SDS011;27399;51.516;13.670;2023-10-13T14:55:45;15.63;;;4.47;;
41711;SDS011;27399;51.516;13.670;2023-10-13T14:58:10;9.88;;;4.28;;
41711;SDS011;27399;51.516;13.670;2023-10-13T15:00:41;13.32;;;4.90;;
41711;SDS011;27399;51.516;13.670;2023-10-13T15:03:10;21.67;;;5.88;;
41711;SDS011;27399;51.516;13.670;2023-10-13T15:05:39;13.10;;;4.55;;
41711;SDS011;27399;51.516;13.670;2023-10-13T15:08:08;13.48;;;4.82;;
41711;SDS011;27399;51.516;13.670;2023-10-13T15:10:34;13.18;;;4.78;;
41711;SDS011;27399;51.516;13.670;2023-10-13T15:13:02;12.30;;;4.53;;
41711;SDS011;27399;51.516;13.670;2023-10-13T15:15:30;11.52;;;3.42;;
41711;SDS011;27399;51.516;13.670;2023-10-13T15:17:57;17.52;;;4.95;;
41711;SDS011;27399;51.516;13.670;2023-10-13T15:20:23;15.73;;;4.38;;
41711;SDS011;27399;51.516;13.670;2023-10-13T15:22:49;7.25;;;3.83;;
41711;SDS011;27399;51.516;13.670;2023-10-13T15:25:14;9.60;;;3.97;;
41711;SDS011;27399;51.516;13.670;2023-10-13T15:27:53;19.50;;;4.93;;
41711;SDS011;27399;51.516;13.670;2023-10-13T15:30:22;12.07;;;3.70;;
41711;SDS011;27399;51.516;13.670;2023-10-13T15:32:50;12.68;;;3.88;;
41711;SDS011;27399;51.516;13.670;2023-10-13T15:35:17;13.95;;;4.82;;